createdAt,value
2023-05-09T00:04:20.362Z,64.41
2023-05-09T00:09:42.508Z,65.14
2023-05-09T00:15:04.513Z,65.03
2023-05-09T00:20:26.587Z,65.37
2023-05-09T00:25:48.554Z,65.09
2023-05-09T00:31:10.110Z,65.61
2023-05-09T00:36:32.842Z,66.20
2023-05-09T00:41:56.213Z,66.44
2023-05-09T00:47:18.332Z,66.25
2023-05-09T00:52:40.313Z,66.25
2023-05-09T00:58:03.447Z,66.63
2023-05-09T01:03:25.494Z,66.75
2023-05-09T01:09:04.452Z,66.64
2023-05-09T01:15:00.073Z,66.77
2023-05-09T01:20:31.308Z,66.20
2023-05-09T01:26:11.010Z,66.62
2023-05-09T01:31:34.873Z,66.70
2023-05-09T01:36:59.349Z,66.67
2023-05-09T01:42:21.531Z,66.85
2023-05-09T01:47:44.003Z,66.57
2023-05-09T01:53:06.719Z,66.91
2023-05-09T01:58:28.947Z,66.94
2023-05-09T02:03:52.749Z,66.82
2023-05-09T02:09:14.703Z,67.00
2023-05-09T02:14:37.812Z,66.44
2023-05-09T02:19:59.713Z,66.84
2023-05-09T02:25:21.340Z,66.93
2023-05-09T02:30:44.645Z,67.82
2023-05-09T02:36:08.640Z,67.99
2023-05-09T02:41:31.043Z,67.59
2023-05-09T02:46:52.547Z,67.54
2023-05-09T02:52:14.748Z,67.86
2023-05-09T02:57:36.917Z,68.19
2023-05-09T03:03:00.231Z,67.97
2023-05-09T03:08:22.100Z,67.57
2023-05-09T03:13:43.822Z,67.66
2023-05-09T03:19:05.833Z,67.71
2023-05-09T03:24:28.385Z,67.85
2023-05-09T03:29:50.294Z,68.15
2023-05-09T03:35:15.283Z,68.18
2023-05-09T03:40:37.920Z,68.37
2023-05-09T03:46:02.666Z,68.56
2023-05-09T03:51:24.832Z,68.73
2023-05-09T03:56:47.480Z,69.11
2023-05-09T04:02:09.123Z,69.08
2023-05-09T04:07:31.843Z,69.55
2023-05-09T04:12:53.907Z,69.73
2023-05-09T04:18:15.715Z,69.81
2023-05-09T04:23:38.918Z,69.39
2023-05-09T04:29:01.939Z,68.96
2023-05-09T04:34:23.808Z,69.30
2023-05-09T04:39:45.967Z,69.29
2023-05-09T04:45:16.662Z,69.01
2023-05-09T04:50:41.702Z,68.66
2023-05-09T04:56:03.286Z,68.23
2023-05-09T05:01:26.806Z,68.11
2023-05-09T05:06:49.765Z,67.11
2023-05-09T05:12:15.296Z,66.27
2023-05-09T05:17:37.458Z,65.65
2023-05-09T05:23:00.171Z,64.87
2023-05-09T05:28:23.630Z,64.64
2023-05-09T05:33:46.016Z,64.03
2023-05-09T05:39:08.111Z,63.55
2023-05-09T05:44:30.951Z,62.82
2023-05-09T05:49:56.125Z,62.48
2023-05-09T05:55:18.167Z,61.80
2023-05-09T06:00:40.141Z,61.34
2023-05-09T06:06:04.631Z,60.87
2023-05-09T06:11:27.800Z,60.50
2023-05-09T06:16:50.050Z,60.17
2023-05-09T06:22:12.401Z,59.44
2023-05-09T06:27:34.353Z,59.60
2023-05-09T06:32:59.107Z,59.17
2023-05-09T06:38:21.091Z,58.47
2023-05-09T06:43:43.198Z,58.17
2023-05-09T06:49:06.595Z,58.16
2023-05-09T06:54:28.659Z,57.05
2023-05-09T06:59:53.704Z,56.03
2023-05-09T07:05:20.155Z,55.46
2023-05-09T07:10:44.653Z,54.56
2023-05-09T07:16:06.680Z,53.06
2023-05-09T07:21:31.458Z,52.08
2023-05-09T07:26:53.839Z,50.96
2023-05-09T07:32:15.691Z,48.81
2023-05-09T07:37:37.429Z,48.89
2023-05-09T07:42:59.415Z,48.69
2023-05-09T07:48:21.350Z,47.26
2023-05-09T07:53:43.393Z,47.06
2023-05-09T07:59:05.404Z,46.74
2023-05-09T08:04:33.625Z,46.64
2023-05-09T08:09:55.873Z,46.39
2023-05-09T08:15:18.304Z,46.24
2023-05-09T08:20:41.048Z,46.07
2023-05-09T08:26:02.979Z,45.20
2023-05-09T08:31:24.698Z,44.57
2023-05-09T08:36:49.814Z,44.61
2023-05-09T08:42:12.740Z,43.87
2023-05-09T08:47:36.292Z,43.71
2023-05-09T08:52:58.393Z,42.66
2023-05-09T08:58:22.884Z,43.08
2023-05-09T09:03:47.844Z,42.79
2023-05-09T09:09:09.828Z,42.68
2023-05-09T09:14:32.247Z,42.63
2023-05-09T09:20:02.300Z,42.14
2023-05-09T09:25:24.431Z,42.04
2023-05-09T09:30:49.191Z,42.73
2023-05-09T09:36:11.209Z,42.73
2023-05-09T09:41:38.132Z,42.90
2023-05-09T09:47:01.183Z,42.93
2023-05-09T09:52:27.065Z,42.93
2023-05-09T09:57:49.766Z,41.97
2023-05-09T10:03:16.341Z,41.23
2023-05-09T10:08:38.334Z,41.35
2023-05-09T10:13:59.763Z,41.13
2023-05-09T10:19:22.593Z,41.37
2023-05-09T10:25:03.544Z,40.50
2023-05-09T10:30:30.227Z,40.19
2023-05-09T10:35:52.265Z,40.12
2023-05-09T10:41:15.538Z,40.76
2023-05-09T10:46:37.775Z,39.77
2023-05-09T10:51:59.574Z,39.43
2023-05-09T10:57:21.587Z,39.93
2023-05-09T11:03:06.893Z,39.43
2023-05-09T11:08:30.737Z,40.47
2023-05-09T11:13:57.381Z,37.53
2023-05-09T11:19:38.507Z,36.97
2023-05-09T11:25:06.048Z,36.96
2023-05-09T11:30:43.935Z,35.98
2023-05-09T11:36:20.212Z,35.82
2023-05-09T11:41:48.464Z,36.03
2023-05-09T11:47:10.871Z,35.64
2023-05-09T11:52:33.914Z,35.71
2023-05-09T11:57:56.350Z,35.48
2023-05-09T12:03:18.208Z,35.58
2023-05-09T12:08:40.299Z,35.28
2023-05-09T12:14:01.997Z,34.92
2023-05-09T12:19:25.456Z,34.52
2023-05-09T12:24:47.345Z,33.62
2023-05-09T12:30:11.044Z,34.40
2023-05-09T12:35:33.045Z,35.22
2023-05-09T12:41:03.881Z,34.67
2023-05-09T12:46:26.073Z,33.75
2023-05-09T12:51:51.897Z,34.30
2023-05-09T12:57:24.458Z,33.89
2023-05-09T13:02:46.593Z,34.56
2023-05-09T13:08:08.407Z,35.30
2023-05-09T13:13:30.837Z,35.70
2023-05-09T13:18:52.391Z,34.72
2023-05-09T13:24:14.000Z,34.58
2023-05-09T13:29:35.535Z,34.71
2023-05-09T13:34:57.254Z,34.48
2023-05-09T13:40:19.380Z,34.76
2023-05-09T13:45:41.211Z,34.93
2023-05-09T13:51:03.822Z,34.87
2023-05-09T13:56:26.481Z,34.20
2023-05-09T14:01:48.141Z,34.67
2023-05-09T14:07:12.755Z,34.73
2023-05-09T14:12:36.679Z,34.94
2023-05-09T14:18:00.151Z,35.16
2023-05-09T14:23:22.554Z,34.63
2023-05-09T14:28:45.084Z,34.84
2023-05-09T14:34:06.706Z,34.62
2023-05-09T14:39:29.049Z,34.11
2023-05-09T14:44:50.488Z,33.92
2023-05-09T14:50:16.055Z,34.10
2023-05-09T14:55:38.132Z,34.06
2023-05-09T15:01:00.338Z,34.05
2023-05-09T15:06:23.545Z,33.83
2023-05-09T15:11:48.732Z,33.50
2023-05-09T15:17:11.206Z,33.08
2023-05-09T15:22:34.076Z,33.44
2023-05-09T15:27:56.838Z,33.77
2023-05-09T15:33:18.872Z,33.69
2023-05-09T15:38:40.745Z,33.30
2023-05-09T15:44:05.529Z,33.13
2023-05-09T15:49:27.292Z,33.27
2023-05-09T15:54:49.289Z,33.35
2023-05-09T16:00:16.514Z,33.62
2023-05-09T16:05:41.087Z,33.89
2023-05-09T16:11:04.757Z,34.02
2023-05-09T16:16:27.096Z,34.04
2023-05-09T16:21:48.799Z,34.04
2023-05-09T16:27:10.911Z,33.89
2023-05-09T16:32:32.691Z,34.33
2023-05-09T16:37:55.954Z,34.47
2023-05-09T16:43:20.205Z,34.50
2023-05-09T16:49:43.349Z,34.58
2023-05-09T16:55:06.204Z,34.50
2023-05-09T17:00:51.938Z,35.07
2023-05-09T17:06:13.838Z,34.81
2023-05-09T17:11:35.614Z,35.30
2023-05-09T17:16:57.651Z,35.49
2023-05-09T17:22:19.734Z,35.20
2023-05-09T17:28:50.287Z,35.44
2023-05-09T17:35:51.463Z,36.04
2023-05-09T17:41:53.664Z,36.42
2023-05-09T17:47:15.389Z,36.71
2023-05-09T17:52:37.528Z,37.10
2023-05-09T17:57:59.536Z,37.42
2023-05-09T18:03:21.356Z,37.75
2023-05-09T18:08:44.718Z,38.01
2023-05-09T18:14:48.196Z,38.50
2023-05-09T18:21:02.785Z,38.49
2023-05-09T18:33:39.276Z,38.88
2023-05-09T18:39:01.867Z,39.13
2023-05-09T18:44:24.033Z,39.43
2023-05-09T18:49:48.144Z,39.52
2023-05-09T18:55:10.464Z,40.00
2023-05-09T19:00:32.650Z,39.94
2023-05-09T19:05:55.616Z,40.08
2023-05-09T19:11:17.663Z,40.27
2023-05-09T19:16:41.265Z,40.36
2023-05-09T19:27:50.736Z,40.91
2023-05-09T20:02:15.698Z,42.86
2023-05-09T20:07:37.725Z,42.92
2023-05-09T20:13:01.039Z,43.02
2023-05-09T20:18:23.082Z,43.24
2023-05-09T20:23:47.518Z,43.61
2023-05-09T20:29:13.833Z,43.58
2023-05-09T20:35:32.220Z,44.06
2023-05-09T20:41:14.191Z,43.95
2023-05-09T20:46:38.670Z,44.39
2023-05-09T20:52:00.382Z,44.48
2023-05-09T20:57:22.234Z,44.74
2023-05-09T21:02:44.187Z,44.53
2023-05-09T21:08:06.658Z,44.75
2023-05-09T21:13:28.975Z,45.06
2023-05-09T21:24:27.058Z,44.83
2023-05-09T21:29:49.864Z,45.26
2023-05-09T21:35:13.264Z,45.45
2023-05-09T21:40:35.372Z,45.32
2023-05-09T21:45:57.477Z,45.72
2023-05-09T21:51:22.262Z,46.00
2023-05-09T21:56:44.131Z,45.91
2023-05-09T22:02:06.211Z,46.05
2023-05-09T22:07:28.306Z,46.26
2023-05-09T22:12:50.681Z,46.39
2023-05-09T22:18:12.467Z,46.66
2023-05-09T22:23:36.502Z,46.85
2023-05-09T22:29:01.130Z,47.11
2023-05-09T22:34:23.010Z,47.16
2023-05-09T22:39:44.993Z,47.35
2023-05-09T22:45:09.563Z,47.44
2023-05-09T22:50:31.454Z,47.72
2023-05-09T22:55:54.832Z,48.20
2023-05-09T23:01:16.481Z,48.48
2023-05-09T23:06:38.233Z,48.50
2023-05-09T23:12:02.799Z,48.77
2023-05-09T23:17:24.549Z,49.23
2023-05-09T23:22:46.355Z,49.52
2023-05-09T23:28:08.259Z,49.80
2023-05-09T23:33:30.142Z,49.98
2023-05-09T23:38:51.569Z,50.26
2023-05-09T23:44:13.006Z,50.63
2023-05-09T23:49:34.403Z,51.05
2023-05-09T23:54:56.683Z,51.35
